This is the latest recevied weather packets stored in our database for station/object G4ZMG. If no packets are shown the sender has not sent any weather packets the latest 10 day(s).
| Time | Temp. | Humidity | Pressure | Rain* | Wind** | Luminosity | Snow |
|---|---|---|---|---|---|---|---|
| 1777540204 | 15.56° C | 57% | 1020.4 hPa | 0 mm | - | 613 W/m² | - |
| 1777539607 | 15° C | 61% | 1020.6 hPa | 0 mm | - | 591 W/m² | - |
| 1777539004 | 14.44° C | 61% | 1020.6 hPa | 0 mm | - | 566 W/m² | - |
| 1777538424 | 14.44° C | 61% | 1020.6 hPa | 0 mm | - | 547 W/m² | - |
| 1777537836 | 13.89° C | 62% | 1020.9 hPa | 0 mm | - | 522 W/m² | - |
| 1777537225 | 13.89° C | 64% | 1020.9 hPa | 0 mm | - | 496 W/m² | - |
| 1777535404 | 12.22° C | 69% | 1021 hPa | 0 mm | - | 417 W/m² | - |
| 1777534844 | 11.67° C | 70% | 1021.1 hPa | 0 mm | - | 394 W/m² | - |
| 1777534224 | 11.11° C | 71% | 1021.2 hPa | 0 mm | - | 366 W/m² | - |
| 1777533607 | 11.11° C | 72% | 1021.5 hPa | 0 mm | - | 339 W/m² | - |
| 1777533047 | 10.56° C | 74% | 1021.5 hPa | 0 mm | - | 313 W/m² | - |
| 1777532413 | 10° C | 76% | 1021.6 hPa | 0 mm | - | 281 W/m² | - |
| 1777531848 | 10° C | 77% | 1021.7 hPa | 0 mm | - | 239 W/m² | - |
| 1777531242 | 9.44° C | 78% | 1021.6 hPa | 0 mm | - | 171 W/m² | - |
| 1777530630 | 8.89° C | 80% | 1021.5 hPa | 0 mm | - | 142 W/m² | - |
| 1777530024 | 8.33° C | 81% | 1021.6 hPa | 0 mm | - | 142 W/m² | - |
| 1777529404 | 8.33° C | 82% | 1021.5 hPa | 0 mm | - | 120 W/m² | - |
| 1777528843 | 7.78° C | 83% | 1021.7 hPa | 0 mm | - | 104 W/m² | - |
| 1777528230 | 7.22° C | 83% | 1021.6 hPa | 0 mm | - | 105 W/m² | - |
| 1777527645 | 7.22° C | 84% | 1021.7 hPa | 0 mm | - | 88 W/m² | - |
| 1777527036 | 6.67° C | 84% | 1021.5 hPa | 0 mm | - | 69 W/m² | - |
| 1777526425 | 6.67° C | 84% | 1021.5 hPa | 0 mm | - | 42 W/m² | - |
| 1777525809 | 6.67° C | 84% | 1021.6 hPa | 0 mm | - | 21 W/m² | - |
| 1777525209 | 6.67° C | 84% | 1021.6 hPa | 0 mm | - | 14 W/m² | - |
| 1777524604 | 6.67° C | 84% | 1021.7 hPa | 0 mm | - | 9 W/m² | - |
* Rain latest hour (hover to see other rain measurements)
** Current wind speed in m/s (hover to see current wind gust speed)